This is the latest recevied weather packets stored in our database for station/object DO7VLR-5. If no packets are shown the sender has not sent any weather packets the latest 10 day(s).
| Time | Temp. | Humidity | Pressure | Rain* | Wind** | Luminosity | Snow |
|---|---|---|---|---|---|---|---|
| 1777622416 | 14.44° C | 36% | 1025.6 hPa | 0 mm | - | - | - |
| 1777620616 | 13.33° C | 37% | 1025.3 hPa | 0 mm | - | - | - |
| 1777618816 | 12.22° C | 38% | 1025.1 hPa | 0 mm | - | - | - |
| 1777617016 | 11.67° C | 40% | 1025.2 hPa | 0 mm | - | - | - |
| 1777615216 | 11.11° C | 40% | 1025.4 hPa | 0 mm | - | - | - |
| 1777613416 | 10° C | 41% | 1025.1 hPa | 0 mm | - | - | - |
| 1777611616 | 10° C | 40% | 1024.9 hPa | 0 mm | - | - | - |
| 1777609816 | 10° C | 39% | 1024.8 hPa | 0 mm | - | - | - |
| 1777608016 | 10.56° C | 37% | 1024.7 hPa | 0 mm | - | - | - |
| 1777606215 | 10° C | 38% | 1024.7 hPa | 0 mm | - | - | - |
| 1777604417 | 10.56° C | 38% | 1025.1 hPa | 0 mm | - | - | - |
| 1777602618 | 11.11° C | 35% | 1024.8 hPa | 0 mm | - | - | - |
| 1777600817 | 11.11° C | 35% | 1025 hPa | 0 mm | - | - | - |
| 1777599017 | 11.11° C | 34% | 1025.1 hPa | 0 mm | - | - | - |
| 1777597217 | 11.11° C | 35% | 1025.1 hPa | 0 mm | - | - | - |
| 1777595417 | 11.67° C | 33% | 1025.2 hPa | 0 mm | - | - | - |
| 1777593617 | 12.22° C | 31% | 1025.2 hPa | 0 mm | - | - | - |
| 1777591817 | 11.67° C | 33% | 1025.1 hPa | 0 mm | - | - | - |
| 1777590017 | 12.22° C | 33% | 1025.2 hPa | 0 mm | - | - | - |
| 1777588217 | 12.78° C | 32% | 1025.1 hPa | 0 mm | - | - | - |
| 1777586417 | 12.78° C | 32% | 1025.1 hPa | 0 mm | - | - | - |
| 1777584616 | 13.33° C | 31% | 1025 hPa | 0 mm | - | - | - |
| 1777582815 | 13.33° C | 31% | 1024.8 hPa | 0 mm | - | - | - |
| 1777581016 | 13.89° C | 31% | 1024.5 hPa | 0 mm | - | - | - |
| 1777579217 | 13.33° C | 33% | 1024.5 hPa | 0 mm | - | - | - |
* Rain latest hour (hover to see other rain measurements)
** Current wind speed in m/s (hover to see current wind gust speed)